This is the latest recevied weather packets stored in our database for station/object KB0Y. If no packets are shown the sender has not sent any weather packets the latest 10 day(s).
| Time | Temp. | Humidity | Pressure | Rain* | Wind** | Luminosity | Snow |
|---|---|---|---|---|---|---|---|
| 1777901723 | 20° C | 77% | 1022.8 hPa | 0 mm | - | 316 W/m² | - |
| 1777901420 | 20° C | 78% | 1022.4 hPa | 0 mm | - | 307 W/m² | - |
| 1777901117 | 19.44° C | 76% | 1022.8 hPa | 0 mm | - | 292 W/m² | - |
| 1777900815 | 18.89° C | 76% | 1022.8 hPa | 0 mm | - | 279 W/m² | - |
| 1777900512 | 18.89° C | 78% | 1022.8 hPa | 0 mm | - | 266 W/m² | - |
| 1777900209 | 18.89° C | 79% | 1022.8 hPa | 0 mm | - | 256 W/m² | - |
| 1777899905 | 18.33° C | 76% | 1022.8 hPa | 0 mm | - | 246 W/m² | - |
| 1777899602 | 17.78° C | 78% | 1022.8 hPa | 0 mm | - | 234 W/m² | - |
| 1777899299 | 17.22° C | 78% | 1022.8 hPa | 0 mm | - | 222 W/m² | - |
| 1777898997 | 16.67° C | 84% | 1022.8 hPa | 0 mm | - | 209 W/m² | - |
| 1777898694 | 16.67° C | 85% | 1022.8 hPa | 0 mm | - | 199 W/m² | - |
| 1777898391 | 16.11° C | 88% | 1022.8 hPa | 0 mm | - | 189 W/m² | - |
| 1777898089 | 16.11° C | 94% | 1022.8 hPa | 0 mm | - | 178 W/m² | - |
| 1777897784 | - | - | - | 0 mm | - | - | - |
| 1777897481 | 14.44° C | 99% | 1022.8 hPa | 0 mm | - | 149 W/m² | - |
| 1777897177 | 14.44° C | 99% | 1022.8 hPa | 0 mm | - | 149 W/m² | - |
| 1777896873 | - | - | - | 0 mm | - | - | - |
| 1777896571 | - | - | - | 0 mm | - | - | - |
| 1777896268 | 11.67° C | 99% | 1022.8 hPa | 0 mm | - | 49 W/m² | - |
| 1777895966 | 11.67° C | 99% | 1022.4 hPa | 0 mm | - | 49 W/m² | - |
| 1777895664 | 10.56° C | 99% | 1022.4 hPa | 0 mm | - | 40 W/m² | - |
| 1777895360 | 10.56° C | 99% | 1022.8 hPa | 0 mm | - | 40 W/m² | - |
| 1777895058 | 10.56° C | 99% | 1022.4 hPa | 0 mm | - | 40 W/m² | - |
| 1777894755 | 10° C | 99% | 1022.4 hPa | 0 mm | - | 36 W/m² | - |
| 1777894452 | 10° C | 99% | 1022.4 hPa | 0 mm | - | 32 W/m² | - |
* Rain latest hour (hover to see other rain measurements)
** Current wind speed in m/s (hover to see current wind gust speed)